Time;durP1;ratioP1;P1;durP2;ratioP2;P2;SDS_P1;SDS_P2;PMS_P1;PMS_P2;Temp;Humidity;BMP_temperature;BMP_pressure;BME280_temperature;BME280_humidity;BME280_pressure;Samples;Min_cycle;Max_cycle;Signal;HPM_P1;HPM_P2
2021/01/16 00:00:38;;;;;;;1.43;1.33;;;;;;;0.03;100.00;100144.08;3799338;77;396126;-75
2021/01/16 00:06:03;;;;;;;1.23;1.13;;;;;;;0.03;100.00;100139.48;3799615;77;388131;-75
2021/01/16 00:11:24;;;;;;;2.07;1.57;;;;;;;0.04;100.00;100142.42;3799371;77;391851;-75
2021/01/16 00:16:47;;;;;;;1.20;1.00;;;;;;;0.00;100.00;100137.95;3799661;77;392162;-75
2021/01/16 00:22:08;;;;;;;1.77;1.47;;;;;;;-0.04;100.00;100131.53;3771528;77;391922;-75
2021/01/16 00:27:29;;;;;;;1.80;1.03;;;;;;;-0.11;100.00;100133.86;3798876;77;396032;-75
2021/01/16 00:32:50;;;;;;;1.43;1.33;;;;;;;-0.06;100.00;100128.33;3799650;77;385609;-75
2021/01/16 00:38:12;;;;;;;3.47;2.17;;;;;;;-0.09;100.00;100119.48;3799092;77;396124;-75
2021/01/16 00:43:33;;;;;;;12.23;1.00;;;;;;;-0.08;100.00;100120.28;3799795;77;383532;-75
2021/01/16 00:48:56;;;;;;;1.33;1.23;;;;;;;-0.13;100.00;100118.48;3799452;77;391881;-75
2021/01/16 00:54:17;;;;;;;1.00;0.90;;;;;;;-0.10;100.00;100120.59;3799552;77;395034;-75
2021/01/16 00:59:38;;;;;;;0.90;0.63;;;;;;;-0.09;100.00;100121.38;3773614;77;383829;-75
2021/01/16 01:04:59;;;;;;;1.07;0.80;;;;;;;-0.08;100.00;100129.17;3772978;77;387762;-75
2021/01/16 01:10:25;;;;;;;4.40;0.97;;;;;;;-0.18;100.00;100119.95;3795197;77;393949;-75
2021/01/16 01:15:48;;;;;;;1.57;1.37;;;;;;;-0.04;100.00;100114.52;3800335;77;396033;-75
2021/01/16 01:21:09;;;;;;;0.90;0.80;;;;;;;-0.09;100.00;100117.32;3799588;77;391910;-75
2021/01/16 01:26:30;;;;;;;1.73;1.30;;;;;;;-0.16;100.00;100118.30;3799124;77;396040;-75
2021/01/16 01:31:51;;;;;;;3.70;3.40;;;;;;;-0.09;100.00;100112.73;3771746;77;396115;-75
2021/01/16 01:37:13;;;;;;;5.03;2.07;;;;;;;-0.18;100.00;100114.55;3799537;77;383561;-75
2021/01/16 01:42:36;;;;;;;3.03;2.73;;;;;;;-0.10;100.00;100116.53;3798804;77;396029;-75
2021/01/16 01:47:57;;;;;;;3.77;1.60;;;;;;;-0.14;100.00;100115.53;3799589;77;383563;-75
2021/01/16 01:53:20;;;;;;;5.23;3.33;;;;;;;-0.06;100.00;100116.16;3799012;77;396285;-75
2021/01/16 01:58:43;;;;;;;1.27;0.93;;;;;;;-0.11;100.00;100120.88;3799141;77;394059;-75
2021/01/16 02:04:05;;;;;;;2.23;1.37;;;;;;;-0.19;100.00;100109.42;3798826;77;395078;-75
2021/01/16 02:09:27;;;;;;;1.00;0.87;;;;;;;-0.26;100.00;100107.70;3799962;77;383585;-75
2021/01/16 02:14:51;;;;;;;2.27;1.33;;;;;;;-0.29;100.00;100111.02;3799802;77;383820;-75
2021/01/16 02:20:14;;;;;;;2.93;1.83;;;;;;;-0.25;100.00;100107.41;3800683;76;383812;-75
2021/01/16 02:25:45;;;;;;;4.37;3.23;;;;;;;-0.36;100.00;100110.08;3798937;77;396072;-75
2021/01/16 02:31:08;;;;;;;0.83;0.53;;;;;;;-0.44;100.00;100112.14;3800143;77;383774;-75
2021/01/16 02:36:55;;;;;;;2.50;1.67;;;;;;;-0.51;100.00;100115.81;3771841;77;395097;-75
2021/01/16 02:42:19;;;;;;;1.50;1.30;;;;;;;-0.40;100.00;100119.88;3772572;77;394225;-76
2021/01/16 02:48:11;;;;;;;4.33;4.07;;;;;;;-0.38;100.00;100112.84;3793782;77;396168;-75
2021/01/16 02:53:36;;;;;;;5.33;1.97;;;;;;;-0.24;100.00;100116.31;3738859;77;394233;-75
2021/01/16 02:58:57;;;;;;;3.93;2.37;;;;;;;-0.21;100.00;100115.71;3799190;77;396276;-75
2021/01/16 03:04:18;;;;;;;3.63;3.43;;;;;;;-0.39;100.00;100111.23;3799266;77;391953;-75
2021/01/16 03:09:41;;;;;;;4.20;2.17;;;;;;;-0.30;100.00;100107.50;3798770;77;396307;-75
2021/01/16 03:15:11;;;;;;;2.20;1.03;;;;;;;-0.38;100.00;100102.81;3799726;77;385706;-75
2021/01/16 03:20:34;;;;;;;8.53;1.43;;;;;;;-0.42;100.00;100097.78;3799392;77;396373;-75
2021/01/16 03:25:57;;;;;;;1.53;1.30;;;;;;;-0.42;100.00;100101.84;3799084;77;392193;-75
2021/01/16 03:31:19;;;;;;;18.53;1.70;;;;;;;-0.37;100.00;100102.28;3798824;77;392983;-75
2021/01/16 03:36:41;;;;;;;0.90;0.80;;;;;;;-0.57;100.00;100110.80;3800272;77;383785;-75
2021/01/16 03:42:02;;;;;;;0.90;0.60;;;;;;;-0.50;100.00;100109.30;3800290;77;385608;-75
2021/01/16 03:47:25;;;;;;;2.40;1.37;;;;;;;-0.41;100.00;100114.78;3798979;77;395031;-75
2021/01/16 03:52:46;;;;;;;2.23;1.80;;;;;;;-0.50;100.00;100122.81;3771764;77;396280;-75
2021/01/16 03:58:07;;;;;;;1.87;1.47;;;;;;;-0.62;100.00;100123.86;3799274;77;391911;-75
2021/01/16 04:03:28;;;;;;;4.33;3.10;;;;;;;-0.41;100.00;100118.30;3798826;77;396117;-75
2021/01/16 04:08:49;;;;;;;2.50;2.30;;;;;;;-0.49;100.00;100116.84;3799562;77;392143;-75
2021/01/16 04:14:10;;;;;;;0.83;0.60;;;;;;;-0.65;100.00;100112.86;3800269;77;383536;-75
2021/01/16 04:19:33;;;;;;;1.40;1.30;;;;;;;-0.70;100.00;100115.11;3798895;77;396131;-75
2021/01/16 04:24:54;;;;;;;5.97;1.40;;;;;;;-0.62;100.00;100121.16;3799328;77;392983;-75
2021/01/16 04:30:15;;;;;;;1.63;1.53;;;;;;;-0.54;100.00;100123.16;3799281;77;396154;-75
2021/01/16 04:35:38;;;;;;;2.13;1.37;;;;;;;-0.60;100.00;100113.56;3798888;77;396135;-75
2021/01/16 04:40:59;;;;;;;3.13;2.03;;;;;;;-0.67;100.00;100109.65;3798671;77;396084;-75
2021/01/16 04:46:21;;;;;;;1.07;0.97;;;;;;;-0.74;100.00;100114.13;3799828;77;391856;-75
2021/01/16 04:51:45;;;;;;;1.93;1.83;;;;;;;-0.80;100.00;100113.95;3798676;77;394025;-75
2021/01/16 04:57:07;;;;;;;1.20;0.90;;;;;;;-0.91;100.00;100118.50;3799783;77;387782;-75
2021/01/16 05:02:32;;;;;;;3.33;2.30;;;;;;;-0.89;100.00;100119.58;3798801;77;396116;-76
2021/01/16 05:07:55;;;;;;;3.27;2.10;;;;;;;-0.98;100.00;100117.31;3799392;77;391849;-75
2021/01/16 05:13:17;;;;;;;0.90;0.77;;;;;;;-1.14;100.00;100124.88;3797551;77;392445;-76
2021/01/16 05:18:41;;;;;;;3.70;1.63;;;;;;;-0.95;100.00;100124.80;3797327;77;395387;-75
2021/01/16 05:24:06;;;;;;;2.80;1.27;;;;;;;-0.84;100.00;100126.22;3797052;77;396131;-76
2021/01/16 05:29:27;;;;;;;1.30;1.00;;;;;;;-1.09;100.00;100124.78;3799353;76;389022;-75
2021/01/16 05:34:50;;;;;;;2.60;1.67;;;;;;;-1.00;100.00;100129.75;3798893;77;396065;-76
2021/01/16 05:40:11;;;;;;;15.23;3.20;;;;;;;-0.99;100.00;100128.65;3798669;77;396355;-75
2021/01/16 05:45:36;;;;;;;2.20;2.10;;;;;;;-0.97;100.00;100135.91;3799628;77;391883;-75
2021/01/16 05:50:58;;;;;;;1.83;1.73;;;;;;;-1.07;100.00;100136.66;3799964;77;396139;-75
2021/01/16 05:56:21;;;;;;;2.07;1.37;;;;;;;-1.37;100.00;100135.29;3772868;77;383564;-75
2021/01/16 06:01:48;;;;;;;2.43;1.43;;;;;;;-1.30;100.00;100142.45;3799072;77;394025;-75
2021/01/16 06:07:09;;;;;;;2.50;1.47;;;;;;;-1.41;100.00;100139.66;3799100;77;396048;-75
2021/01/16 06:12:31;;;;;;;5.03;1.17;;;;;;;-1.34;100.00;100137.94;3799015;77;394048;-75
2021/01/16 06:17:54;;;;;;;4.67;1.20;;;;;;;-1.51;100.00;100140.38;3799458;77;393964;-75
2021/01/16 06:23:18;;;;;;;2.10;1.43;;;;;;;-1.55;100.00;100136.69;3771436;77;396143;-76
2021/01/16 06:29:01;;;;;;;3.43;1.93;;;;;;;-1.49;100.00;100139.55;3799676;77;386704;-75
2021/01/16 06:34:31;;;;;;;1.17;1.07;;;;;;;-1.58;100.00;100138.61;3799939;77;383765;-75
2021/01/16 06:39:54;;;;;;;1.13;1.03;;;;;;;-1.62;100.00;100136.80;3800461;76;383575;-75
2021/01/16 06:45:17;;;;;;;4.30;2.37;;;;;;;-1.68;100.00;100130.68;3799125;77;391924;-75
2021/01/16 06:50:38;;;;;;;2.90;1.10;;;;;;;-1.77;100.00;100128.39;3800646;77;383808;-76
2021/01/16 06:56:08;;;;;;;1.00;0.90;;;;;;;-1.84;100.00;100125.27;3799562;77;392096;-76
2021/01/16 07:01:32;;;;;;;0.90;0.80;;;;;;;-1.77;100.00;100121.65;3800173;77;383636;-76
2021/01/16 07:06:55;;;;;;;1.20;0.70;;;;;;;-1.69;100.00;100114.23;3800135;77;386666;-76
2021/01/16 07:12:19;;;;;;;0.80;0.50;;;;;;;-1.79;100.00;100127.09;3800151;77;383591;-75
2021/01/16 07:17:40;;;;;;;1.57;0.90;;;;;;;-1.67;100.00;100120.15;3800210;77;394000;-75
2021/01/16 07:23:02;;;;;;;5.77;2.20;;;;;;;-1.61;97.54;100114.13;3799173;77;396094;-75
2021/01/16 07:28:26;;;;;;;1.47;1.37;;;;;;;-1.82;99.06;100127.70;3799491;77;383588;-75
2021/01/16 07:33:50;;;;;;;5.70;0.83;;;;;;;-1.85;96.19;100122.31;3799523;77;394289;-76
2021/01/16 07:39:12;;;;;;;1.57;0.93;;;;;;;-1.84;92.92;100122.58;3799074;77;394000;-75
2021/01/16 07:44:35;;;;;;;1.83;1.63;;;;;;;-2.00;91.69;100133.33;3772747;77;391856;-76
2021/01/16 07:49:57;;;;;;;1.43;1.20;;;;;;;-1.84;90.63;100132.57;3800205;76;396087;-75
2021/01/16 07:55:20;;;;;;;1.03;0.60;;;;;;;-1.77;87.17;100137.05;3799764;77;389873;-75
2021/01/16 08:00:44;;;;;;;2.20;1.23;;;;;;;-2.09;88.15;100136.43;3799466;77;394194;-75
2021/01/16 08:06:18;;;;;;;1.20;1.00;;;;;;;-2.06;89.13;100135.07;3799921;77;396169;-76
2021/01/16 08:11:42;;;;;;;1.43;1.33;;;;;;;-2.00;88.90;100148.72;3799887;76;396064;-76
2021/01/16 08:17:05;;;;;;;0.90;0.80;;;;;;;-2.12;90.94;100134.87;3800783;77;391899;-75
2021/01/16 08:22:29;;;;;;;1.77;0.80;;;;;;;-2.10;89.20;100142.91;3799107;77;393993;-75
2021/01/16 08:27:52;;;;;;;1.20;1.10;;;;;;;-2.11;88.31;100141.33;3800582;77;383792;-75
2021/01/16 08:33:13;;;;;;;1.37;1.10;;;;;;;-2.02;87.79;100136.86;3798941;77;394998;-75
2021/01/16 08:38:35;;;;;;;1.93;1.50;;;;;;;-1.80;85.79;100138.44;3798916;77;392395;-75
2021/01/16 08:43:58;;;;;;;1.07;0.93;;;;;;;-1.69;83.96;100141.21;3799346;77;389823;-76
2021/01/16 08:49:19;;;;;;;7.90;2.40;;;;;;;-1.76;85.64;100137.30;3772377;77;398145;-75
2021/01/16 08:54:43;;;;;;;1.40;1.10;;;;;;;-1.90;87.50;100130.50;3799267;77;394021;-75
2021/01/16 09:00:19;;;;;;;6.40;2.50;;;;;;;-1.67;82.65;100131.50;3799919;76;393935;-75
2021/01/16 09:05:41;;;;;;;2.43;1.93;;;;;;;-1.67;83.85;100124.75;3798813;77;396112;-75
2021/01/16 09:11:13;;;;;;;3.43;1.60;;;;;;;-1.59;82.98;100134.31;3799654;77;383564;-75
2021/01/16 09:16:42;;;;;;;1.23;1.13;;;;;;;-1.64;84.40;100118.22;3772742;77;383851;-75
2021/01/16 09:22:20;;;;;;;2.27;1.50;;;;;;;-1.39;81.86;100121.84;3799936;77;383572;-75
2021/01/16 09:27:44;;;;;;;0.90;0.73;;;;;;;-1.43;82.39;100120.82;3799918;77;392088;-75
2021/01/16 09:33:24;;;;;;;1.53;0.97;;;;;;;-1.43;85.08;100116.77;3800582;77;394035;-75
2021/01/16 09:38:47;;;;;;;5.73;1.63;;;;;;;-1.48;86.61;100119.57;3799220;77;387771;-75
2021/01/16 09:44:08;;;;;;;1.87;1.17;;;;;;;-1.31;85.70;100123.30;3798744;77;396089;-75
2021/01/16 09:49:44;;;;;;;1.10;0.83;;;;;;;-1.43;88.83;100124.34;3799792;77;391909;-77
2021/01/16 09:55:08;;;;;;;1.83;1.47;;;;;;;-1.14;86.31;100125.45;3798913;77;396128;-77
2021/01/16 10:00:33;;;;;;;1.23;1.13;;;;;;;-1.14;87.41;100126.23;3800433;76;391953;-77
2021/01/16 10:05:57;;;;;;;1.50;1.40;;;;;;;-0.95;87.41;100128.85;3799380;77;391919;-75
2021/01/16 10:11:43;;;;;;;1.30;1.20;;;;;;;-1.06;88.08;100120.71;3800352;77;391874;-75
2021/01/16 10:17:12;;;;;;;1.00;0.87;;;;;;;-1.04;92.04;100119.30;3799804;77;387941;-74
2021/01/16 10:22:35;;;;;;;1.93;1.83;;;;;;;-0.95;86.45;100108.06;3799327;77;394023;-75
2021/01/16 10:27:56;;;;;;;1.23;0.80;;;;;;;-1.07;87.93;100115.84;3796522;77;394243;-75
2021/01/16 10:33:22;;;;;;;2.83;1.70;;;;;;;-1.03;89.53;100099.31;3798953;77;396080;-74
2021/01/16 10:38:51;;;;;;;1.10;1.00;;;;;;;-0.87;90.45;100099.27;3799332;77;391911;-74
2021/01/16 10:44:16;;;;;;;1.10;0.73;;;;;;;-0.87;86.00;100089.81;3800679;76;387966;-74
2021/01/16 10:49:41;;;;;;;1.57;1.47;;;;;;;-0.87;82.90;100079.01;3799017;77;396134;-75
2021/01/16 10:55:05;;;;;;;1.13;0.93;;;;;;;-1.02;81.34;100075.27;3800521;77;387770;-74
2021/01/16 11:00:26;;;;;;;0.80;0.40;;;;;;;-0.84;79.21;100060.05;3800341;77;383852;-75
2021/01/16 11:05:52;;;;;;;0.90;0.73;;;;;;;-0.98;78.46;100048.46;3800301;77;383577;-74
2021/01/16 11:11:25;;;;;;;0.90;0.60;;;;;;;-1.02;79.13;100046.91;3800090;77;383577;-75
2021/01/16 11:16:47;;;;;;;1.00;0.80;;;;;;;-0.94;76.77;100041.34;3799551;77;383596;-75
2021/01/16 11:22:10;;;;;;;1.37;1.27;;;;;;;-0.78;75.88;100033.99;3800184;77;383573;-74
2021/01/16 11:27:32;;;;;;;1.13;1.00;;;;;;;-0.82;77.72;100038.95;3799917;77;383792;-74
2021/01/16 11:32:55;;;;;;;2.33;0.73;;;;;;;-0.72;75.11;100026.80;3800223;76;393994;-74
2021/01/16 11:38:39;;;;;;;1.17;0.70;;;;;;;-0.72;74.91;100012.52;3800004;77;383568;-74
2021/01/16 11:44:00;;;;;;;1.07;0.70;;;;;;;-0.93;77.04;100011.89;3800309;77;383579;-75
2021/01/16 11:49:22;;;;;;;1.50;1.40;;;;;;;-0.92;74.62;100008.88;3799275;77;396122;-74
2021/01/16 11:54:43;;;;;;;1.30;1.00;;;;;;;-0.88;75.98;100000.97;3797678;77;392958;-74
2021/01/16 12:00:06;;;;;;;0.80;0.50;;;;;;;-0.65;71.27;99995.33;3800384;77;383863;-75
2021/01/16 12:05:27;;;;;;;1.37;1.27;;;;;;;-0.65;74.01;99988.02;3798805;77;396056;-74
2021/01/16 12:10:51;;;;;;;6.63;1.80;;;;;;;-0.72;73.89;99982.23;3798690;77;394279;-74
2021/01/16 12:16:13;;;;;;;3.00;1.20;;;;;;;-0.74;74.63;99984.46;3799525;77;389917;-74
2021/01/16 12:21:37;;;;;;;0.80;0.43;;;;;;;-0.50;73.75;99975.53;3800132;77;383572;-74
2021/01/16 12:27:03;;;;;;;0.90;0.70;;;;;;;-0.56;73.53;99967.84;3800407;77;383576;-74
2021/01/16 12:32:24;;;;;;;1.27;0.83;;;;;;;-0.77;72.62;99958.61;3798956;77;394036;-73
2021/01/16 12:37:46;;;;;;;0.90;0.70;;;;;;;-0.61;74.47;99954.45;3800176;77;383862;-73
2021/01/16 12:43:12;;;;;;;0.90;0.60;;;;;;;-0.49;74.28;99948.77;3800408;77;385620;-73
2021/01/16 12:48:34;;;;;;;0.97;0.87;;;;;;;-0.45;73.85;99945.67;3800482;77;383576;-73
2021/01/16 12:53:55;;;;;;;0.90;0.67;;;;;;;-0.45;73.88;99934.08;3800118;77;383561;-73
2021/01/16 12:59:19;;;;;;;1.00;0.57;;;;;;;-0.36;73.51;99928.97;3800372;77;383561;-73
2021/01/16 13:04:40;;;;;;;2.80;1.07;;;;;;;-0.33;72.46;99927.02;3799991;77;394025;-73
2021/01/16 13:10:09;;;;;;;2.00;1.10;;;;;;;-0.34;68.62;99918.66;3799366;77;391844;-73
2021/01/16 13:15:39;;;;;;;0.80;0.50;;;;;;;-0.36;67.02;99916.81;3800191;77;383840;-73
2021/01/16 13:21:02;;;;;;;0.93;0.80;;;;;;;-0.34;67.89;99898.92;3801036;77;383788;-73
2021/01/16 13:26:23;;;;;;;0.80;0.57;;;;;;;-0.48;69.40;99903.03;3800422;77;383603;-73
2021/01/16 13:31:49;;;;;;;4.53;2.30;;;;;;;-0.37;67.23;99892.23;3799547;77;390822;-74
2021/01/16 13:37:13;;;;;;;0.90;0.77;;;;;;;-0.40;67.70;99891.48;3800370;77;385613;-73
2021/01/16 13:42:34;;;;;;;1.50;1.07;;;;;;;-0.71;67.54;99885.80;3800634;76;390060;-73
2021/01/16 13:47:58;;;;;;;0.90;0.60;;;;;;;-0.67;68.66;99884.88;3800194;77;385600;-74
2021/01/16 13:53:20;;;;;;;4.30;1.90;;;;;;;-0.80;68.81;99881.66;3800319;76;389993;-73
2021/01/16 13:58:43;;;;;;;1.97;1.80;;;;;;;-0.65;69.28;99872.41;3799173;77;396348;-74
2021/01/16 14:04:07;;;;;;;1.67;0.80;;;;;;;-0.60;69.47;99874.44;3773135;77;388978;-73
2021/01/16 14:09:33;;;;;;;1.43;0.93;;;;;;;-0.72;70.48;99872.83;3799311;77;391844;-73
2021/01/16 14:14:58;;;;;;;1.60;1.50;;;;;;;-0.59;67.98;99865.23;3799689;77;387834;-73
2021/01/16 14:20:20;;;;;;;0.90;0.80;;;;;;;-0.73;70.75;99857.72;3800936;76;392366;-74
2021/01/16 14:25:42;;;;;;;1.10;0.90;;;;;;;-0.77;69.64;99854.05;3801066;77;383769;-74
2021/01/16 14:31:09;;;;;;;1.40;0.80;;;;;;;-0.79;70.34;99854.91;3799734;77;383997;-73
2021/01/16 14:36:32;;;;;;;5.23;2.10;;;;;;;-0.88;68.79;99849.73;3799037;77;389865;-73
2021/01/16 14:41:54;;;;;;;1.80;1.70;;;;;;;-0.93;68.71;99849.33;3799038;77;394046;-73
2021/01/16 14:47:19;;;;;;;0.80;0.40;;;;;;;-0.84;69.46;99852.08;3800065;77;383616;-73
2021/01/16 14:52:40;;;;;;;1.20;0.90;;;;;;;-0.85;70.19;99849.95;3799984;76;391894;-73
2021/01/16 14:58:02;;;;;;;0.80;0.40;;;;;;;-0.91;71.20;99851.71;3800384;77;383839;-73
2021/01/16 15:03:33;;;;;;;1.40;0.90;;;;;;;-0.90;71.02;99837.90;3800015;77;393986;-73
2021/01/16 15:08:54;;;;;;;0.90;0.60;;;;;;;-0.88;71.18;99830.30;3799829;77;387798;-74
2021/01/16 15:14:15;;;;;;;1.30;1.20;;;;;;;-0.94;70.09;99823.42;3799937;77;385950;-74
2021/01/16 15:19:38;;;;;;;3.07;1.33;;;;;;;-1.02;70.52;99823.34;3798994;77;396366;-74
2021/01/16 15:25:00;;;;;;;0.80;0.40;;;;;;;-1.06;68.74;99827.20;3800118;77;383634;-74
2021/01/16 15:30:23;;;;;;;0.80;0.60;;;;;;;-1.07;68.72;99833.70;3800063;77;383828;-74
2021/01/16 15:35:54;;;;;;;1.83;1.10;;;;;;;-1.04;68.68;99822.84;4000084;73;485678;-75
2021/01/16 15:41:15;;;;;;;5.03;1.70;;;;;;;-1.02;68.84;99819.30;3921443;74;394313;-75
2021/01/16 15:46:37;;;;;;;6.23;1.80;;;;;;;-0.98;69.01;99811.63;3925438;74;396084;-75
2021/01/16 15:52:03;;;;;;;1.27;1.17;;;;;;;-1.12;70.45;99816.82;3921931;74;383592;-75
2021/01/16 15:57:24;;;;;;;2.80;0.83;;;;;;;-0.99;70.70;99806.55;3921566;73;394014;-75
2021/01/16 16:02:47;;;;;;;2.50;1.23;;;;;;;-1.13;68.52;99795.80;3921637;74;396105;-75
2021/01/16 16:08:13;;;;;;;2.83;2.60;;;;;;;-1.19;69.51;99794.86;3921661;74;392912;-75
2021/01/16 16:13:37;;;;;;;0.87;0.60;;;;;;;-1.12;68.04;99784.42;3920236;75;383818;-75
2021/01/16 16:18:58;;;;;;;1.10;1.00;;;;;;;-1.08;67.61;99775.98;3901565;75;383618;-75
2021/01/16 16:24:20;;;;;;;1.83;1.23;;;;;;;-1.20;68.74;99771.66;3921457;74;396080;-75
2021/01/16 16:29:43;;;;;;;0.90;0.80;;;;;;;-1.22;68.65;99769.84;3900217;73;383568;-75
2021/01/16 16:35:05;;;;;;;1.63;1.53;;;;;;;-1.18;69.15;99759.48;3903167;74;396096;-75
2021/01/16 16:40:31;;;;;;;1.20;1.10;;;;;;;-1.32;70.13;99755.23;3897241;75;383542;-75
2021/01/16 16:45:52;;;;;;;0.80;0.40;;;;;;;-1.19;69.90;99748.97;3897357;73;383818;-75
2021/01/16 16:51:13;;;;;;;0.80;0.60;;;;;;;-1.21;69.72;99744.45;3896234;75;383829;-75
2021/01/16 16:56:34;;;;;;;1.03;0.93;;;;;;;-1.34;70.34;99745.29;3895299;75;391899;-75
2021/01/16 17:01:55;;;;;;;0.80;0.60;;;;;;;-1.26;70.18;99729.18;3884581;74;383821;-75
2021/01/16 17:07:18;;;;;;;4.17;1.17;;;;;;;-1.30;71.03;99728.75;3894759;74;394206;-75
2021/01/16 17:12:40;;;;;;;0.90;0.70;;;;;;;-1.20;70.86;99727.13;3883729;75;383810;-75
2021/01/16 17:18:07;;;;;;;1.33;1.03;;;;;;;-1.21;70.97;99718.81;3895214;75;388113;-76
2021/01/16 17:23:27;;;;;;;0.90;0.60;;;;;;;-1.29;72.16;99712.23;3895943;75;385888;-76
2021/01/16 17:28:48;;;;;;;0.90;0.70;;;;;;;-1.16;71.71;99707.88;3895816;75;383577;-76
2021/01/16 17:34:10;;;;;;;2.17;1.57;;;;;;;-1.23;72.60;99700.77;3894522;75;395299;-76
2021/01/16 17:39:31;;;;;;;1.43;1.13;;;;;;;-1.19;72.91;99693.64;3894611;75;396041;-75
2021/01/16 17:44:53;;;;;;;1.50;0.73;;;;;;;-1.28;73.52;99676.59;3895292;74;390858;-75
2021/01/16 17:50:17;;;;;;;2.10;0.97;;;;;;;-1.19;74.09;99677.45;3894920;75;393993;-75
2021/01/16 17:55:42;;;;;;;2.13;1.43;;;;;;;-1.30;74.81;99666.68;3894778;75;396131;-75
2021/01/16 18:01:01;;;;;;;1.40;1.30;;;;;;;-1.15;75.03;99668.42;3894967;75;396466;-75
2021/01/16 18:06:22;;;;;;;2.60;1.70;;;;;;;-1.20;74.78;99659.66;3894962;75;396037;-75
2021/01/16 18:11:44;;;;;;;0.97;0.70;;;;;;;-1.43;75.78;99640.01;3895810;74;389778;-75
2021/01/16 18:17:06;;;;;;;2.47;1.53;;;;;;;-1.51;76.73;99631.84;3894621;74;396125;-75
2021/01/16 18:22:29;;;;;;;2.60;1.37;;;;;;;-1.54;77.79;99628.43;3894508;75;396123;-76
2021/01/16 18:27:52;;;;;;;1.97;1.87;;;;;;;-1.55;78.68;99624.92;3894572;75;396294;-76
2021/01/16 18:33:14;;;;;;;1.20;1.10;;;;;;;-1.21;78.39;99632.45;3895071;75;396317;-76
2021/01/16 18:38:38;;;;;;;23.03;7.90;;;;;;;-1.27;78.17;99630.42;3894407;75;398148;-76
2021/01/16 18:44:01;;;;;;;1.60;1.40;;;;;;;-1.26;78.67;99626.63;3894911;74;395260;-76
2021/01/16 18:49:22;;;;;;;3.20;3.00;;;;;;;-1.42;79.71;99624.07;3894584;75;396104;-76
2021/01/16 18:54:46;;;;;;;1.53;1.30;;;;;;;-1.22;79.07;99626.80;3895519;75;383530;-76
2021/01/16 19:00:09;;;;;;;2.70;2.20;;;;;;;-1.23;78.92;99617.11;3894588;75;396065;-76
2021/01/16 19:05:31;;;;;;;1.23;1.13;;;;;;;-1.36;78.86;99612.57;3895385;75;396093;-76
2021/01/16 19:10:52;;;;;;;1.13;1.03;;;;;;;-1.39;79.00;99613.98;3895097;75;396084;-76
2021/01/16 19:16:13;;;;;;;1.17;0.90;;;;;;;-1.38;80.32;99608.84;3907483;74;387727;-76
2021/01/16 19:21:34;;;;;;;5.20;1.53;;;;;;;-1.32;80.50;99602.77;3895192;75;387682;-76
2021/01/16 19:26:56;;;;;;;3.67;2.30;;;;;;;-1.38;80.48;99604.02;3894627;75;387814;-76
2021/01/16 19:32:17;;;;;;;3.70;2.90;;;;;;;-1.41;81.42;99604.62;3895363;74;387999;-76
2021/01/16 19:37:40;;;;;;;1.80;1.70;;;;;;;-1.47;82.07;99605.30;3931125;74;392253;-75
2021/01/16 19:43:01;;;;;;;1.80;1.70;;;;;;;-1.50;82.39;99603.77;3934365;74;383588;-76
2021/01/16 19:48:22;;;;;;;1.77;1.17;;;;;;;-1.42;82.57;99593.58;3934459;74;394035;-76
2021/01/16 19:53:43;;;;;;;3.27;1.73;;;;;;;-1.34;82.87;99587.43;3934046;74;396292;-76
2021/01/16 19:59:06;;;;;;;4.67;2.93;;;;;;;-1.31;82.41;99583.56;3934304;74;396126;-76
2021/01/16 20:04:27;;;;;;;2.40;1.83;;;;;;;-1.35;82.71;99578.55;3933752;74;396121;-76
2021/01/16 20:09:49;;;;;;;5.97;1.77;;;;;;;-1.32;83.11;99577.91;3933999;74;394029;-76
2021/01/16 20:15:12;;;;;;;2.00;1.00;;;;;;;-1.34;83.07;99569.36;3934104;74;393982;-76
2021/01/16 20:20:33;;;;;;;1.20;1.07;;;;;;;-1.50;83.93;99560.61;3934575;74;392959;-76
2021/01/16 20:25:55;;;;;;;1.97;1.87;;;;;;;-1.47;84.85;99558.65;3934406;74;391888;-76
2021/01/16 20:31:16;;;;;;;2.90;2.70;;;;;;;-1.56;86.05;99548.36;3934265;74;396099;-76
2021/01/16 20:36:38;;;;;;;10.30;3.43;;;;;;;-1.58;87.35;99544.39;3934900;74;394024;-76
2021/01/16 20:42:01;;;;;;;5.60;4.70;;;;;;;-1.51;87.88;99540.94;3934235;74;396144;-76
2021/01/16 20:47:22;;;;;;;2.87;2.67;;;;;;;-1.49;87.80;99540.62;3934003;74;396120;-76
2021/01/16 20:52:45;;;;;;;2.20;2.10;;;;;;;-1.51;88.11;99523.94;3934763;74;392962;-76
2021/01/16 20:58:06;;;;;;;2.07;1.90;;;;;;;-1.55;88.86;99520.28;3933867;74;396305;-76
2021/01/16 21:03:28;;;;;;;3.23;1.50;;;;;;;-1.54;89.40;99517.27;3934503;74;389837;-76
2021/01/16 21:08:49;;;;;;;5.97;2.73;;;;;;;-1.47;89.66;99512.78;3934160;74;395303;-76
2021/01/16 21:14:11;;;;;;;2.30;2.20;;;;;;;-1.46;90.13;99504.38;3934324;74;396101;-76
2021/01/16 21:19:32;;;;;;;2.57;2.20;;;;;;;-1.54;91.26;99498.95;3934290;74;396386;-77
2021/01/16 21:24:53;;;;;;;1.53;1.43;;;;;;;-1.60;92.33;99489.95;3933981;74;396144;-76
2021/01/16 21:30:17;;;;;;;1.67;1.57;;;;;;;-1.68;93.66;99488.79;3934266;74;396341;-76
2021/01/16 21:35:40;;;;;;;4.20;3.80;;;;;;;-1.67;95.02;99489.03;3905287;74;396351;-77
2021/01/16 21:41:00;;;;;;;7.17;3.17;;;;;;;-1.78;96.64;99483.68;3895216;75;392905;-77
2021/01/16 21:46:24;;;;;;;2.87;2.67;;;;;;;-1.78;98.29;99482.87;3894780;74;396116;-77
2021/01/16 21:51:45;;;;;;;3.27;3.03;;;;;;;-1.86;100.00;99486.31;3906642;74;396141;-77
2021/01/16 21:57:07;;;;;;;7.50;3.33;;;;;;;-1.83;100.00;99477.63;3895251;75;396088;-74
2021/01/16 22:02:28;;;;;;;5.40;2.30;;;;;;;-1.95;100.00;99469.30;3894703;75;396340;-74
2021/01/16 22:07:51;;;;;;;7.43;1.50;;;;;;;-2.01;100.00;99455.70;3895487;75;383581;-74
2021/01/16 22:13:12;;;;;;;5.23;2.60;;;;;;;-1.97;100.00;99448.58;3894430;74;396092;-77
2021/01/16 22:18:33;;;;;;;3.23;1.67;;;;;;;-2.00;100.00;99439.78;3894737;75;396074;-77
2021/01/16 22:23:56;;;;;;;5.80;1.93;;;;;;;-2.08;100.00;99438.62;3894570;75;394275;-77
2021/01/16 22:29:18;;;;;;;4.53;2.33;;;;;;;-2.01;100.00;99434.14;3894946;75;396073;-77
2021/01/16 22:34:39;;;;;;;2.50;2.30;;;;;;;-2.11;100.00;99426.31;3895026;75;383569;-77
2021/01/16 22:40:00;;;;;;;2.33;2.17;;;;;;;-2.06;100.00;99421.59;3895172;74;388009;-77
2021/01/16 22:45:22;;;;;;;13.83;2.73;;;;;;;-2.04;100.00;99415.88;3894588;75;396045;-77
2021/01/16 22:50:43;;;;;;;1.33;1.23;;;;;;;-2.10;100.00;99405.78;3894673;74;396084;-77
2021/01/16 22:56:04;;;;;;;6.97;2.77;;;;;;;-2.08;100.00;99410.32;3895305;74;394004;-77
2021/01/16 23:01:26;;;;;;;5.67;1.80;;;;;;;-2.13;100.00;99406.42;3895113;74;394243;-78
2021/01/16 23:06:48;;;;;;;2.53;2.33;;;;;;;-2.19;100.00;99390.15;3894723;75;396387;-77
2021/01/16 23:12:10;;;;;;;5.87;2.47;;;;;;;-2.15;100.00;99380.89;3895021;75;396337;-77
2021/01/16 23:17:32;;;;;;;3.80;3.57;;;;;;;-2.14;100.00;99383.27;3894471;75;396037;-77
2021/01/16 23:22:53;;;;;;;6.57;2.23;;;;;;;-2.16;100.00;99375.26;3894883;74;396296;-77
2021/01/16 23:28:13;;;;;;;5.63;2.93;;;;;;;-2.18;100.00;99370.72;3894718;75;396069;-77
2021/01/16 23:33:37;;;;;;;2.80;2.60;;;;;;;-2.18;100.00;99359.94;3894512;75;396105;-77
2021/01/16 23:38:59;;;;;;;16.30;3.50;;;;;;;-2.17;100.00;99362.31;3922662;74;398360;-77
2021/01/16 23:44:20;;;;;;;10.83;4.97;;;;;;;-2.09;100.00;99354.83;3934038;74;396081;-77
2021/01/16 23:49:41;;;;;;;5.67;4.90;;;;;;;-1.93;100.00;99341.74;3933939;74;396627;-77
2021/01/16 23:55:02;;;;;;;8.27;4.07;;;;;;;-2.03;100.00;99328.54;3934200;74;396121;-77
